Aérodrome :
LOGIN :

S'inscrire | Disclaimer

   EN    FR    IT 

 










Légende :    VFR   VFR Marginal   IFR   IFR Intensif   IFR Très Intensif
Visi : 
Plafond : 
>= 8 km
>= 3000ft
5 à 8 km
1000 à 3000 ft
1500m à 5 km
500 à 1000 ft
800 à 1500m
200 à 500 ft
< 800m
< 200 ft
Symboles :   Orages  Brouillard  Fortes neiges  Fortes précipitations  Vent > 20 kt
SIGMETs :   Divers  Orages  Givrage  Turbulence  Onde Orograph.  Cendres Volcan.







- Altitude de l'aérodrome : 1682 ft
- Code IATA : VIT


LEVT - Vitoria Gasteiz

DERNIER METAR :
  • 191030Z 21008KT 160V240 9999 BKN018 14/10 Q1013

METARs EXPIRÉS :
  • 191000Z 20009KT 160V230 9999 SCT013 13/10 Q1013
  • 190930Z 21008KT 170V250 9999 SCT011 13/10 Q1013
  • 190900Z 21007KT 180V240 9999 SCT010 12/10 Q1013
  • 190830Z VRB01KT 9999 SCT008 11/10 Q1012
  • 190800Z 21004KT 170V260 9999 SCT008 SCT042 11/10 Q1012

TAF TAF LEVT
Valide du 19 à 06h jusqu'au 20 à 06h UTC


190500Z 1906/2006 VRB02KT 9999 BKN040 TX19/1914Z TN10/2006Z
PROB40
TEMPO 1906/1907 RA
TEMPO 1909/2006 21010KT
Pas de NOTAMs connus pour ce terrain.
1 SIGMET publié pour la FIR Madrid (LECM) :
 
Turbulence forte
LECM SIGMET 4 VALID 190800/191200 LEVA
LECM MADRID FIR/UIR SEV TURB FCST E OF LINE N4440 W006 - N36 W004 FL200/360 MOV E 15KT NC=



MET'MAP, la Météo Aéronautique d'un coup d'oeil ! - Copyright ORBIFLY Décembre 2007 - Disclaimer

ORBIFLY MET'MAP TEAM :

Programmation & Développement : Alexandra Zaïnal
Conception & Développement : Baudouin d'Aumeries
Co-Programmation & Développement : Marc-Olivier Méhu
Soutien technique & logistique : Manuel Goepfert

Contact : metmap@orbifly.com




SOURCES & CREDITS :

   NOAA